createdAt,value
2023-03-07T00:00:39.762Z,0.56
2023-03-07T00:03:16.638Z,0.58
2023-03-07T00:05:45.312Z,0.58
2023-03-07T00:08:13.597Z,0.57
2023-03-07T00:10:42.176Z,0.54
2023-03-07T00:13:10.977Z,0.51
2023-03-07T00:15:40.714Z,0.51
2023-03-07T00:18:09.071Z,0.51
2023-03-07T00:20:37.269Z,0.49
2023-03-07T00:23:05.539Z,0.48
2023-03-07T00:25:33.813Z,0.46
2023-03-07T00:28:02.305Z,0.43
2023-03-07T00:30:30.690Z,0.40
2023-03-07T00:32:59.281Z,0.37
2023-03-07T00:35:27.988Z,0.36
2023-03-07T00:37:56.683Z,0.33
2023-03-07T00:40:25.389Z,0.29
2023-03-07T00:42:53.782Z,0.27
2023-03-07T00:45:22.492Z,0.24
2023-03-07T00:47:51.428Z,0.20
2023-03-07T00:50:20.128Z,0.19
2023-03-07T00:52:48.403Z,0.17
2023-03-07T00:55:17.703Z,0.17
2023-03-07T00:57:46.422Z,0.17
2023-03-07T01:00:15.502Z,0.16
2023-03-07T01:02:43.783Z,0.12
2023-03-07T01:05:12.377Z,0.08
2023-03-07T01:07:40.858Z,0.05
2023-03-07T01:10:10.052Z,0.02
2023-03-07T01:12:38.651Z,0.01
2023-03-07T01:15:08.054Z,-0.03
2023-03-07T01:17:36.541Z,-0.05
2023-03-07T01:20:07.261Z,-0.07
2023-03-07T01:22:36.707Z,-0.10
2023-03-07T01:25:07.115Z,-0.12
2023-03-07T01:27:35.809Z,-0.11
2023-03-07T01:30:05.913Z,-0.10
2023-03-07T01:32:34.658Z,-0.09
2023-03-07T01:35:03.727Z,-0.07
2023-03-07T01:37:32.011Z,-0.03
2023-03-07T01:40:00.825Z,0.03
2023-03-07T01:42:33.192Z,0.09
2023-03-07T01:45:06.066Z,0.14
2023-03-07T01:47:44.993Z,0.21
2023-03-07T01:50:17.824Z,0.25
2023-03-07T01:52:50.972Z,0.28
2023-03-07T01:55:24.342Z,0.32
2023-03-07T01:57:57.530Z,0.36
2023-03-07T02:00:30.018Z,0.42
2023-03-07T02:03:10.836Z,0.45
2023-03-07T02:05:47.677Z,0.47
2023-03-07T02:08:18.643Z,0.52
2023-03-07T02:10:48.257Z,0.55
2023-03-07T02:13:17.388Z,0.53
2023-03-07T02:15:46.595Z,0.57
2023-03-07T02:18:21.139Z,0.61
2023-03-07T02:21:23.737Z,0.66
2023-03-07T02:24:11.837Z,0.73
2023-03-07T02:26:53.617Z,0.77
2023-03-07T02:29:22.352Z,0.81
2023-03-07T02:31:51.276Z,0.81
2023-03-07T02:34:25.879Z,0.81
2023-03-07T02:37:15.233Z,0.81
2023-03-07T02:39:46.650Z,0.81
2023-03-07T02:42:22.786Z,0.83
2023-03-07T02:45:04.637Z,0.85
2023-03-07T02:47:35.992Z,0.87
2023-03-07T02:50:05.855Z,0.89
2023-03-07T02:52:35.623Z,0.87
2023-03-07T02:55:04.238Z,0.88
2023-03-07T02:57:36.162Z,0.90
2023-03-07T03:00:10.498Z,0.91
2023-03-07T03:02:41.239Z,0.93
2023-03-07T03:05:10.047Z,0.95
2023-03-07T03:07:38.729Z,0.94
2023-03-07T03:10:08.025Z,0.92
2023-03-07T03:12:36.831Z,0.95
2023-03-07T03:15:06.849Z,0.99
2023-03-07T03:17:35.440Z,1.02
2023-03-07T03:20:12.991Z,1.05
2023-03-07T03:22:41.724Z,1.07
2023-03-07T03:25:13.384Z,1.08
2023-03-07T03:27:42.384Z,1.05
2023-03-07T03:30:13.134Z,1.03
2023-03-07T03:32:42.086Z,1.06
2023-03-07T03:35:11.633Z,1.09
2023-03-07T03:37:41.440Z,1.12
2023-03-07T03:40:14.810Z,1.15
2023-03-07T03:42:44.777Z,1.15
2023-03-07T03:45:17.502Z,1.14
2023-03-07T03:47:48.698Z,1.15
2023-03-07T03:50:18.109Z,1.17
2023-03-07T03:52:46.503Z,1.18
2023-03-07T03:55:14.870Z,1.19
2023-03-07T03:57:43.667Z,1.20
2023-03-07T04:00:15.022Z,1.21
2023-03-07T04:02:44.061Z,1.22
2023-03-07T04:05:17.168Z,1.23
2023-03-07T04:07:45.492Z,1.26
2023-03-07T04:10:13.885Z,1.27
2023-03-07T04:12:43.409Z,1.29
2023-03-07T04:15:12.830Z,1.30
2023-03-07T04:17:41.173Z,1.31
2023-03-07T04:20:17.722Z,1.31
2023-03-07T04:22:47.872Z,1.30
2023-03-07T04:25:16.264Z,1.30
2023-03-07T04:27:44.644Z,1.28
2023-03-07T04:30:13.529Z,1.25
2023-03-07T04:32:42.845Z,1.24
2023-03-07T04:35:11.334Z,1.22
2023-03-07T04:37:39.711Z,1.21
2023-03-07T04:40:10.020Z,1.19
2023-03-07T04:42:38.464Z,1.17
2023-03-07T04:45:07.777Z,1.14
2023-03-07T04:47:36.728Z,1.14
2023-03-07T04:50:06.303Z,1.13
2023-03-07T04:52:36.983Z,1.12
2023-03-07T04:55:06.390Z,1.12
2023-03-07T04:57:34.972Z,1.11
2023-03-07T05:00:09.430Z,1.11
2023-03-07T05:02:39.315Z,1.09
2023-03-07T05:05:08.110Z,1.09
2023-03-07T05:07:36.707Z,1.10
2023-03-07T05:10:05.805Z,1.09
2023-03-07T05:12:34.497Z,1.09
2023-03-07T05:15:02.826Z,1.09
2023-03-07T05:17:31.577Z,1.09
2023-03-07T05:20:00.159Z,1.10
2023-03-07T05:22:29.068Z,1.14
2023-03-07T05:24:58.665Z,1.17
2023-03-07T05:27:27.476Z,1.23
2023-03-07T05:29:55.950Z,1.31
2023-03-07T05:32:24.874Z,1.40
2023-03-07T05:34:53.539Z,1.52
2023-03-07T05:37:23.350Z,1.66
2023-03-07T05:39:52.347Z,1.81
2023-03-07T05:42:21.054Z,1.93
2023-03-07T05:44:50.341Z,2.05
2023-03-07T05:47:19.044Z,2.16
2023-03-07T05:49:47.527Z,2.26
2023-03-07T05:52:16.212Z,2.35
2023-03-07T05:54:44.830Z,2.47
2023-03-07T05:57:13.803Z,2.60
2023-03-07T05:59:42.606Z,2.75
2023-03-07T06:02:10.979Z,2.91
2023-03-07T06:04:39.260Z,3.06
2023-03-07T06:07:07.750Z,3.18
2023-03-07T06:09:36.644Z,3.26
2023-03-07T06:12:05.539Z,3.33
2023-03-07T06:14:33.928Z,3.41
2023-03-07T06:17:03.103Z,3.48
2023-03-07T06:19:32.440Z,3.51
2023-03-07T06:22:00.720Z,3.54
2023-03-07T06:24:29.302Z,3.57
2023-03-07T06:26:57.994Z,3.62
2023-03-07T06:29:26.687Z,3.72
2023-03-07T06:31:55.788Z,3.81
2023-03-07T06:34:25.393Z,3.90
2023-03-07T06:36:54.301Z,3.97
2023-03-07T06:39:22.585Z,4.04
2023-03-07T06:41:52.498Z,4.09
2023-03-07T06:44:21.087Z,4.11
2023-03-07T06:46:49.782Z,4.13
2023-03-07T06:49:20.431Z,4.17
2023-03-07T06:51:49.718Z,4.23
2023-03-07T06:54:18.417Z,4.29
2023-03-07T06:56:47.207Z,4.35
2023-03-07T06:59:18.250Z,4.41
2023-03-07T07:01:48.977Z,4.46
2023-03-07T07:04:19.314Z,4.51
2023-03-07T07:06:49.542Z,4.58
2023-03-07T07:09:18.334Z,4.62
2023-03-07T07:11:47.346Z,4.68
2023-03-07T07:14:15.615Z,4.75
2023-03-07T07:16:43.974Z,4.80
2023-03-07T07:19:12.704Z,4.84
2023-03-07T07:21:41.086Z,4.90
2023-03-07T07:24:12.673Z,4.96
2023-03-07T07:26:41.136Z,5.04
2023-03-07T07:29:10.224Z,5.12
2023-03-07T07:31:39.342Z,5.21
2023-03-07T07:34:07.916Z,5.34
2023-03-07T07:36:36.710Z,5.48
2023-03-07T07:39:07.191Z,5.66
2023-03-07T07:41:38.897Z,5.82
2023-03-07T07:44:07.407Z,5.96
2023-03-07T07:46:39.463Z,6.11
2023-03-07T07:49:08.963Z,6.27
2023-03-07T07:51:37.861Z,6.43
2023-03-07T07:54:06.356Z,6.59
2023-03-07T07:56:35.168Z,6.73
2023-03-07T07:59:03.948Z,6.85
2023-03-07T08:01:32.526Z,6.98
2023-03-07T08:04:01.223Z,7.16
2023-03-07T08:06:29.913Z,7.31
2023-03-07T08:09:00.255Z,7.46
2023-03-07T08:11:28.828Z,7.65
2023-03-07T08:13:57.438Z,7.85
2023-03-07T08:16:26.424Z,8.05
2023-03-07T08:18:56.133Z,8.23
2023-03-07T08:21:25.948Z,8.41
2023-03-07T08:23:55.466Z,8.57
2023-03-07T08:26:24.251Z,8.72
2023-03-07T08:28:52.741Z,8.89
2023-03-07T08:31:24.067Z,9.02
2023-03-07T08:33:53.541Z,9.17
2023-03-07T08:36:22.202Z,9.32
2023-03-07T08:38:52.255Z,9.49
2023-03-07T08:41:22.948Z,9.67
2023-03-07T08:43:52.053Z,9.91
2023-03-07T08:46:21.014Z,10.10
2023-03-07T08:48:49.914Z,10.22
2023-03-07T08:51:18.563Z,10.30
2023-03-07T08:53:47.566Z,10.46
2023-03-07T08:56:18.366Z,10.70
2023-03-07T08:58:47.265Z,10.95
2023-03-07T09:01:15.759Z,11.18
2023-03-07T09:03:44.572Z,11.41
2023-03-07T09:06:18.486Z,11.66
2023-03-07T09:08:47.550Z,11.87
2023-03-07T09:11:17.863Z,12.09
2023-03-07T09:13:52.930Z,12.28
2023-03-07T09:16:22.212Z,12.50
2023-03-07T09:18:51.190Z,12.69
2023-03-07T09:21:19.724Z,12.96
2023-03-07T09:23:48.216Z,13.31
2023-03-07T09:26:16.687Z,13.63
2023-03-07T09:28:45.082Z,14.13
2023-03-07T09:31:14.842Z,14.83
2023-03-07T09:33:46.545Z,15.67
2023-03-07T09:36:17.452Z,16.37
2023-03-07T09:38:47.393Z,16.80
2023-03-07T09:41:27.774Z,17.26
2023-03-07T09:44:32.175Z,17.68
2023-03-07T09:48:03.607Z,18.04
2023-03-07T09:50:45.481Z,18.49
2023-03-07T09:53:25.044Z,18.88
2023-03-07T09:55:55.365Z,19.71
2023-03-07T09:58:26.151Z,20.50
2023-03-07T10:01:01.677Z,20.83
2023-03-07T10:03:38.055Z,20.72
2023-03-07T10:06:42.947Z,20.93
2023-03-07T10:09:19.894Z,20.67
2023-03-07T10:12:18.560Z,20.71
2023-03-07T10:15:04.982Z,20.89
2023-03-07T10:18:07.348Z,20.89
2023-03-07T10:21:12.965Z,20.43
2023-03-07T10:24:02.444Z,20.40
2023-03-07T10:26:38.115Z,20.73
2023-03-07T10:29:20.057Z,20.83
2023-03-07T10:31:55.151Z,21.03
2023-03-07T10:34:32.397Z,20.61
2023-03-07T10:37:11.535Z,20.37
2023-03-07T10:39:55.787Z,20.54
2023-03-07T10:42:27.119Z,20.91
2023-03-07T10:44:55.565Z,21.55
2023-03-07T10:47:27.175Z,22.17
2023-03-07T10:50:23.801Z,22.39
2023-03-07T10:52:56.376Z,22.47
2023-03-07T10:55:41.155Z,22.38
2023-03-07T10:58:30.904Z,22.49
2023-03-07T11:01:11.000Z,22.27
2023-03-07T11:03:53.507Z,21.84
2023-03-07T11:06:52.375Z,21.52
2023-03-07T11:09:32.402Z,21.49
2023-03-07T11:12:13.465Z,21.07
2023-03-07T11:14:51.155Z,20.71
2023-03-07T11:17:22.622Z,20.52
2023-03-07T11:19:55.588Z,20.46
2023-03-07T11:22:34.383Z,20.12
2023-03-07T11:25:21.137Z,19.67
2023-03-07T11:27:53.929Z,19.29
2023-03-07T11:30:35.908Z,18.85
2023-03-07T11:33:28.455Z,18.41
2023-03-07T11:36:05.897Z,18.13
2023-03-07T11:38:56.227Z,17.90
2023-03-07T11:41:31.472Z,17.63
2023-03-07T11:44:27.997Z,17.24
2023-03-07T11:47:05.890Z,16.73
2023-03-07T11:50:04.680Z,16.50
2023-03-07T11:52:47.171Z,16.31
2023-03-07T11:55:49.639Z,16.31
2023-03-07T11:58:40.536Z,16.38
2023-03-07T12:01:42.284Z,16.47
2023-03-07T12:04:38.298Z,16.56
2023-03-07T12:07:37.177Z,16.60
2023-03-07T12:10:40.560Z,16.67
2023-03-07T12:13:21.539Z,16.78
2023-03-07T12:15:50.173Z,17.01
2023-03-07T12:18:44.091Z,17.25
2023-03-07T12:21:27.515Z,17.54
2023-03-07T12:24:07.157Z,17.76
2023-03-07T12:27:01.021Z,17.94
2023-03-07T12:29:29.312Z,18.07
2023-03-07T12:32:02.931Z,18.09
2023-03-07T12:34:40.267Z,17.98
2023-03-07T12:37:37.438Z,17.95
2023-03-07T12:40:21.691Z,18.09
2023-03-07T12:43:27.326Z,18.25
2023-03-07T12:46:25.086Z,18.34
2023-03-07T12:49:30.930Z,18.12
2023-03-07T12:52:05.130Z,17.91
2023-03-07T12:54:46.717Z,17.55
2023-03-07T12:57:23.534Z,17.22
2023-03-07T12:59:57.441Z,17.19
2023-03-07T13:02:30.662Z,17.24
2023-03-07T13:05:02.066Z,17.30
2023-03-07T13:07:33.593Z,17.35
2023-03-07T13:10:06.755Z,17.50
2023-03-07T13:12:35.956Z,17.47
2023-03-07T13:15:06.029Z,17.40
2023-03-07T13:17:34.204Z,17.07
2023-03-07T13:20:15.706Z,16.96
2023-03-07T13:22:43.882Z,16.99
2023-03-07T13:25:21.374Z,17.09
2023-03-07T13:27:53.437Z,17.18
2023-03-07T13:30:32.777Z,17.09
2023-03-07T13:33:04.404Z,17.06
2023-03-07T13:35:33.638Z,17.15
2023-03-07T13:38:11.519Z,17.17
2023-03-07T13:40:49.029Z,17.14
2023-03-07T13:43:24.109Z,17.05
2023-03-07T13:46:35.820Z,16.96
2023-03-07T13:49:05.000Z,16.87
2023-03-07T13:51:33.312Z,16.80
2023-03-07T13:54:13.013Z,16.69
2023-03-07T13:56:43.125Z,16.56
2023-03-07T13:59:21.607Z,16.44
2023-03-07T14:02:01.327Z,16.34
2023-03-07T14:05:02.359Z,16.22
2023-03-07T14:07:40.564Z,16.12
2023-03-07T14:10:30.659Z,16.07
2023-03-07T14:13:11.389Z,16.03
2023-03-07T14:16:05.018Z,16.02
2023-03-07T14:18:52.296Z,16.07
2023-03-07T14:21:29.482Z,16.14
2023-03-07T14:23:57.863Z,16.08
2023-03-07T14:26:49.599Z,16.11
2023-03-07T14:29:36.897Z,16.17
2023-03-07T14:32:25.388Z,16.35
2023-03-07T14:34:54.041Z,16.75
2023-03-07T14:37:28.619Z,17.08
2023-03-07T14:39:59.917Z,17.26
2023-03-07T14:42:40.453Z,17.49
2023-03-07T14:45:41.706Z,17.53
2023-03-07T14:48:31.526Z,17.43
2023-03-07T14:51:13.353Z,17.35
2023-03-07T14:53:43.184Z,17.32
2023-03-07T14:56:12.057Z,17.27
2023-03-07T14:58:56.604Z,17.29
2023-03-07T15:01:35.742Z,17.23
2023-03-07T15:04:21.364Z,17.09
2023-03-07T15:07:04.858Z,16.98
2023-03-07T15:09:34.374Z,16.89
2023-03-07T15:12:23.531Z,16.82
2023-03-07T15:15:01.641Z,16.58
2023-03-07T15:17:42.204Z,16.15
2023-03-07T15:20:21.546Z,15.74
2023-03-07T15:22:50.670Z,15.40
2023-03-07T15:25:23.990Z,15.17
2023-03-07T15:28:33.762Z,14.92
2023-03-07T15:31:02.984Z,14.52
2023-03-07T15:33:32.873Z,14.33
2023-03-07T15:36:25.695Z,14.16
2023-03-07T15:39:21.752Z,13.94
2023-03-07T15:42:20.728Z,13.75
2023-03-07T15:44:56.582Z,13.52
2023-03-07T15:47:28.732Z,13.34
2023-03-07T15:50:04.334Z,13.18
2023-03-07T15:52:39.752Z,13.01
2023-03-07T15:55:19.677Z,12.83
2023-03-07T15:57:55.858Z,12.66
2023-03-07T16:00:37.861Z,12.51
2023-03-07T16:03:27.856Z,12.38
2023-03-07T16:05:58.779Z,12.23
2023-03-07T16:08:27.879Z,12.07
2023-03-07T16:10:59.018Z,11.90
2023-03-07T16:13:41.228Z,11.72
2023-03-07T16:16:20.010Z,11.54
2023-03-07T16:18:49.261Z,11.37
2023-03-07T16:21:18.897Z,11.25
2023-03-07T16:23:47.545Z,11.12
2023-03-07T16:26:22.386Z,10.97
2023-03-07T16:28:53.024Z,10.85
2023-03-07T16:31:21.687Z,10.75
2023-03-07T16:33:50.085Z,10.65
2023-03-07T16:36:18.469Z,10.55
2023-03-07T16:38:47.401Z,10.45
2023-03-07T16:41:24.958Z,10.38
2023-03-07T16:43:58.920Z,10.30
2023-03-07T16:46:29.057Z,10.18
2023-03-07T16:48:57.583Z,10.04
2023-03-07T16:51:28.431Z,9.91
2023-03-07T16:53:59.875Z,9.79
2023-03-07T16:56:45.045Z,9.66
2023-03-07T16:59:20.868Z,9.55
2023-03-07T17:01:52.036Z,9.48
2023-03-07T17:04:20.637Z,9.42
2023-03-07T17:06:57.931Z,9.37
2023-03-07T17:09:32.760Z,9.32
2023-03-07T17:12:01.560Z,9.21
2023-03-07T17:14:30.243Z,9.10
2023-03-07T17:17:01.511Z,9.00
2023-03-07T17:19:32.141Z,8.92
2023-03-07T17:22:02.935Z,8.86
2023-03-07T17:24:31.375Z,8.82
2023-03-07T17:27:03.740Z,8.79
2023-03-07T17:29:42.037Z,8.71
2023-03-07T17:32:11.189Z,8.66
2023-03-07T17:34:42.201Z,8.61
2023-03-07T17:37:11.659Z,8.56
2023-03-07T17:39:41.611Z,8.50
2023-03-07T17:42:10.813Z,8.45
2023-03-07T17:44:39.709Z,8.38
2023-03-07T17:47:08.020Z,8.33
2023-03-07T17:49:38.020Z,8.28
2023-03-07T17:52:07.343Z,8.21
2023-03-07T17:54:35.716Z,8.16
2023-03-07T17:57:04.398Z,8.11
2023-03-07T17:59:33.135Z,8.06
2023-03-07T18:02:01.685Z,8.02
2023-03-07T18:04:31.495Z,7.96
2023-03-07T18:07:00.420Z,7.91
2023-03-07T18:09:28.991Z,7.84
2023-03-07T18:11:57.779Z,7.78
2023-03-07T18:14:26.685Z,7.73
2023-03-07T18:16:55.587Z,7.66
2023-03-07T18:19:27.090Z,7.59
2023-03-07T18:21:56.021Z,7.51
2023-03-07T18:24:27.675Z,7.42
2023-03-07T18:26:59.186Z,7.35
2023-03-07T18:29:29.009Z,7.28
2023-03-07T18:31:57.439Z,7.23
2023-03-07T18:34:25.918Z,7.15
2023-03-07T18:36:54.713Z,7.09
2023-03-07T18:39:23.831Z,7.02
2023-03-07T18:41:52.963Z,6.96
2023-03-07T18:44:22.126Z,6.88
2023-03-07T18:46:50.929Z,6.81
2023-03-07T18:49:19.398Z,6.72
2023-03-07T18:51:48.698Z,6.63
2023-03-07T18:54:17.190Z,6.53
2023-03-07T18:56:47.318Z,6.45
2023-03-07T18:59:17.342Z,6.39
2023-03-07T19:01:50.351Z,6.32
2023-03-07T19:04:18.725Z,6.24
2023-03-07T19:06:48.321Z,6.18
2023-03-07T19:09:19.275Z,6.08
2023-03-07T19:11:48.275Z,6.00
2023-03-07T19:14:19.418Z,5.99
2023-03-07T19:16:47.973Z,5.97
2023-03-07T19:19:16.438Z,5.94
2023-03-07T19:21:44.708Z,5.85
2023-03-07T19:24:13.354Z,5.77
2023-03-07T19:26:42.987Z,5.70
2023-03-07T19:29:13.151Z,5.65
2023-03-07T19:31:44.148Z,5.61
2023-03-07T19:34:12.750Z,5.57
2023-03-07T19:36:41.787Z,5.52
2023-03-07T19:39:14.741Z,5.47
2023-03-07T19:41:45.560Z,5.43
2023-03-07T19:44:14.748Z,5.36
2023-03-07T19:46:46.556Z,5.31
2023-03-07T19:49:16.602Z,5.29
2023-03-07T19:51:45.111Z,5.24
2023-03-07T19:54:14.306Z,5.18
2023-03-07T19:56:45.278Z,5.14
2023-03-07T19:59:14.473Z,5.08
2023-03-07T20:01:43.002Z,4.99
2023-03-07T20:04:13.506Z,4.93
2023-03-07T20:06:43.187Z,4.85
2023-03-07T20:09:13.736Z,4.78
2023-03-07T20:11:45.503Z,4.74
2023-03-07T20:14:13.995Z,4.67
2023-03-07T20:16:42.699Z,4.61
2023-03-07T20:19:11.281Z,4.59
2023-03-07T20:21:40.578Z,4.55
2023-03-07T20:24:09.068Z,4.49
2023-03-07T20:26:39.270Z,4.44
2023-03-07T20:29:09.569Z,4.37
2023-03-07T20:31:39.515Z,4.35
2023-03-07T20:34:08.433Z,4.31
2023-03-07T20:36:38.570Z,4.26
2023-03-07T20:39:12.097Z,4.22
2023-03-07T20:41:41.676Z,4.15
2023-03-07T20:44:13.437Z,4.12
2023-03-07T20:46:42.097Z,4.10
2023-03-07T20:49:12.613Z,4.06
2023-03-07T20:51:41.508Z,4.02
2023-03-07T20:54:15.685Z,3.97
2023-03-07T20:56:46.478Z,3.91
2023-03-07T20:59:18.988Z,3.86
2023-03-07T21:01:47.995Z,3.82
2023-03-07T21:04:18.611Z,3.80
2023-03-07T21:06:47.806Z,3.79
2023-03-07T21:09:17.912Z,3.76
2023-03-07T21:11:49.294Z,3.72
2023-03-07T21:14:20.219Z,3.70
2023-03-07T21:16:48.944Z,3.71
2023-03-07T21:19:17.533Z,3.69
2023-03-07T21:21:45.825Z,3.64
2023-03-07T21:24:15.980Z,3.59
2023-03-07T21:26:44.540Z,3.55
2023-03-07T21:29:14.303Z,3.53
2023-03-07T21:31:42.784Z,3.51
2023-03-07T21:34:14.072Z,3.50
2023-03-07T21:36:42.951Z,3.49
2023-03-07T21:39:12.054Z,3.45
2023-03-07T21:41:41.048Z,3.45
2023-03-07T21:44:10.103Z,3.44
2023-03-07T21:46:38.353Z,3.42
2023-03-07T21:49:07.138Z,3.39
2023-03-07T21:51:35.840Z,3.39
2023-03-07T21:54:04.223Z,3.40
2023-03-07T21:56:32.709Z,3.44
2023-03-07T21:59:01.601Z,3.46
2023-03-07T22:01:29.911Z,3.45
2023-03-07T22:03:59.384Z,3.43
2023-03-07T22:06:28.656Z,3.41
2023-03-07T22:08:59.242Z,3.40
2023-03-07T22:11:28.105Z,3.40
2023-03-07T22:13:57.951Z,3.42
2023-03-07T22:16:26.303Z,3.44
2023-03-07T22:18:57.686Z,3.44
2023-03-07T22:21:26.840Z,3.46
2023-03-07T22:24:01.231Z,3.47
2023-03-07T22:26:31.779Z,3.43
2023-03-07T22:29:00.544Z,3.37
2023-03-07T22:31:29.571Z,3.35
2023-03-07T22:34:00.283Z,3.32
2023-03-07T22:36:28.663Z,3.29
2023-03-07T22:38:58.175Z,3.29
2023-03-07T22:41:27.058Z,3.25
2023-03-07T22:43:55.764Z,3.22
2023-03-07T22:46:24.814Z,3.17
2023-03-07T22:48:55.801Z,3.16
2023-03-07T22:51:25.612Z,3.13
2023-03-07T22:53:54.972Z,3.08
2023-03-07T22:56:26.752Z,3.06
2023-03-07T22:58:55.285Z,3.05
2023-03-07T23:01:26.002Z,3.02
2023-03-07T23:03:55.497Z,2.99
2023-03-07T23:06:26.468Z,2.93
2023-03-07T23:08:56.625Z,2.86
2023-03-07T23:11:27.116Z,2.79
2023-03-07T23:13:55.815Z,2.72
2023-03-07T23:16:30.286Z,2.62
2023-03-07T23:18:59.335Z,2.55
2023-03-07T23:21:30.207Z,2.48
2023-03-07T23:23:59.969Z,2.40
2023-03-07T23:26:34.510Z,2.33
2023-03-07T23:29:07.105Z,2.30
2023-03-07T23:31:38.288Z,2.26
2023-03-07T23:34:09.285Z,2.23
2023-03-07T23:36:37.785Z,2.21
2023-03-07T23:39:07.079Z,2.18
2023-03-07T23:41:35.967Z,2.13
2023-03-07T23:44:04.870Z,2.12
2023-03-07T23:46:33.612Z,2.11
2023-03-07T23:49:02.160Z,2.09
2023-03-07T23:51:30.734Z,2.09
2023-03-07T23:53:59.536Z,2.07
2023-03-07T23:56:28.013Z,2.05
2023-03-07T23:58:56.321Z,2.05
